createdAt,value
2019-04-20T00:00:48.321Z,8.90
2019-04-20T00:04:47.313Z,10.50
2019-04-20T00:08:58.237Z,9.10
2019-04-20T00:13:08.788Z,8.20
2019-04-20T00:17:00.999Z,9.00
2019-04-20T00:21:24.675Z,7.30
2019-04-20T00:25:42.941Z,8.87
2019-04-20T00:29:52.399Z,8.63
2019-04-20T00:33:52.827Z,7.80
2019-04-20T00:37:45.096Z,9.23
2019-04-20T00:41:55.016Z,8.47
2019-04-20T00:46:06.016Z,9.13
2019-04-20T00:50:13.958Z,8.27
2019-04-20T00:54:04.315Z,9.40
2019-04-20T00:58:18.506Z,8.83
2019-04-20T01:02:26.163Z,10.03
2019-04-20T01:06:38.506Z,9.00
2019-04-20T01:10:28.381Z,8.60
2019-04-20T01:14:37.896Z,7.87
2019-04-20T01:18:35.244Z,9.10
2019-04-20T01:22:45.499Z,8.17
2019-04-20T01:26:48.989Z,9.83
2019-04-20T01:30:59.978Z,9.03
2019-04-20T01:35:04.445Z,8.47
2019-04-20T01:39:10.326Z,9.03
2019-04-20T01:43:03.763Z,9.90
2019-04-20T01:47:08.706Z,9.33
2019-04-20T01:51:19.616Z,9.93
2019-04-20T01:55:42.483Z,11.10
2019-04-20T01:59:44.832Z,10.63
2019-04-20T02:03:47.129Z,11.03
2019-04-20T02:07:51.062Z,9.73
2019-04-20T02:11:54.967Z,10.20
2019-04-20T02:16:04.883Z,10.20
2019-04-20T02:20:27.539Z,11.03
2019-04-20T02:24:12.811Z,9.80
2019-04-20T02:28:34.709Z,10.50
2019-04-20T02:32:58.938Z,9.73
2019-04-20T02:45:18.852Z,10.77
2019-04-20T02:53:21.876Z,9.10
2019-04-20T02:57:33.528Z,9.47
2019-04-20T03:01:26.840Z,10.50
2019-04-20T03:05:20.656Z,10.17
2019-04-20T03:09:36.400Z,9.43
2019-04-20T03:13:41.741Z,9.67
2019-04-20T03:17:49.323Z,9.90
2019-04-20T03:21:52.472Z,11.10
2019-04-20T03:25:58.413Z,10.90
2019-04-20T03:30:22.493Z,10.20
2019-04-20T03:38:21.931Z,10.00
2019-04-20T03:42:05.150Z,10.63
2019-04-20T03:46:12.567Z,9.80
2019-04-20T03:50:39.011Z,10.30
2019-04-20T03:54:34.656Z,11.03
2019-04-20T03:58:56.182Z,10.00
2019-04-20T04:03:41.859Z,9.37
2019-04-20T04:07:16.737Z,9.60
2019-04-20T04:11:26.273Z,10.40
2019-04-20T04:15:14.671Z,10.83
2019-04-20T04:19:23.167Z,11.03
2019-04-20T04:23:40.622Z,9.80
2019-04-20T04:27:45.569Z,11.30
2019-04-20T04:32:03.644Z,11.67
2019-04-20T04:35:55.716Z,10.47
2019-04-20T04:40:05.018Z,9.73
2019-04-20T04:44:06.114Z,20.00
2019-04-20T04:47:53.644Z,13.57
2019-04-20T04:52:04.051Z,11.47
2019-04-20T04:56:07.293Z,8.70
2019-04-20T05:00:10.223Z,11.03
2019-04-20T05:04:33.269Z,9.90
2019-04-20T05:08:27.354Z,8.70
2019-04-20T05:12:28.077Z,9.60
2019-04-20T05:16:47.400Z,10.00
2019-04-20T05:20:53.427Z,10.53
2019-04-20T05:25:03.447Z,10.30
2019-04-20T05:28:55.649Z,10.27
2019-04-20T05:32:59.634Z,10.37
2019-04-20T05:37:27.182Z,10.63
2019-04-20T05:41:21.614Z,10.73
2019-04-20T05:45:25.004Z,10.67
2019-04-20T05:49:30.309Z,10.23
2019-04-20T05:53:41.233Z,11.23
2019-04-20T05:57:42.279Z,11.33
2019-04-20T06:01:52.777Z,13.30
2019-04-20T06:05:58.076Z,10.73
2019-04-20T06:09:59.979Z,11.13
2019-04-20T06:14:03.708Z,10.80
2019-04-20T06:18:16.316Z,20.43
2019-04-20T06:22:52.677Z,10.20
2019-04-20T06:26:44.121Z,14.13
2019-04-20T06:30:39.299Z,9.73
2019-04-20T06:34:46.613Z,11.90
2019-04-20T06:38:58.759Z,10.50
2019-04-20T06:42:56.630Z,9.20
2019-04-20T06:47:11.610Z,9.73
2019-04-20T06:51:01.762Z,11.13
2019-04-20T06:55:08.727Z,10.20
2019-04-20T06:59:27.767Z,9.70
2019-04-20T07:03:40.721Z,10.63
2019-04-20T07:07:33.902Z,10.10
2019-04-20T07:11:40.974Z,10.10
2019-04-20T07:15:37.138Z,11.83
2019-04-20T07:19:46.174Z,10.07
2019-04-20T07:23:56.250Z,10.80
2019-04-20T07:28:02.866Z,9.77
2019-04-20T07:31:57.667Z,9.17
2019-04-20T07:36:15.636Z,9.60
2019-04-20T07:40:17.597Z,9.60
2019-04-20T07:44:29.813Z,10.27
2019-04-20T07:48:23.525Z,8.30
2019-04-20T07:52:08.052Z,10.10
2019-04-20T07:56:31.092Z,10.20
2019-04-20T08:00:53.311Z,8.53
2019-04-20T08:04:46.306Z,8.90
2019-04-20T08:08:43.560Z,8.47
2019-04-20T08:13:04.894Z,8.43
2019-04-20T08:17:14.239Z,9.93
2019-04-20T08:21:02.688Z,7.80
2019-04-20T08:25:04.596Z,8.63
2019-04-20T08:29:01.796Z,9.00
2019-04-20T08:33:17.814Z,9.40
2019-04-20T08:37:26.588Z,9.60
2019-04-20T08:41:30.379Z,9.70
2019-04-20T08:45:43.025Z,10.00
2019-04-20T08:50:15.868Z,9.53
2019-04-20T08:54:14.379Z,8.27
2019-04-20T08:58:02.143Z,9.13
2019-04-20T09:02:11.731Z,8.53
2019-04-20T09:06:29.442Z,9.60
2019-04-20T09:10:40.796Z,9.50
2019-04-20T09:14:23.742Z,7.80
2019-04-20T09:18:40.021Z,8.07
2019-04-20T09:22:49.481Z,8.43
2019-04-20T09:27:01.146Z,8.67
2019-04-20T09:31:01.837Z,9.13
2019-04-20T09:35:17.869Z,8.67
2019-04-20T09:39:16.414Z,8.60
2019-04-20T09:43:23.820Z,8.70
2019-04-20T09:47:34.497Z,9.90
2019-04-20T09:51:54.116Z,9.00
2019-04-20T09:55:59.235Z,9.17
2019-04-20T09:59:59.404Z,8.40
2019-04-20T10:03:47.115Z,8.77
2019-04-20T10:07:55.939Z,7.83
2019-04-20T10:11:55.885Z,8.53
2019-04-20T10:15:59.730Z,8.90
2019-04-20T10:20:12.808Z,8.23
2019-04-20T10:24:10.646Z,7.73
2019-04-20T10:28:13.916Z,8.73
2019-04-20T10:32:17.855Z,7.43
2019-04-20T10:36:23.636Z,8.33
2019-04-20T10:40:38.028Z,10.17
2019-04-20T10:44:32.690Z,8.77
2019-04-20T10:48:40.223Z,8.70
2019-04-20T10:52:41.597Z,9.00
2019-04-20T10:56:45.732Z,9.10
2019-04-20T11:00:50.115Z,9.67
2019-04-20T11:04:54.793Z,8.83
2019-04-20T11:09:00.372Z,11.23
2019-04-20T11:13:03.793Z,9.53
2019-04-20T11:17:06.918Z,9.20
2019-04-20T11:21:11.291Z,9.07
2019-04-20T11:25:14.704Z,17.27
2019-04-20T11:29:18.170Z,12.37
2019-04-20T11:33:22.354Z,9.50
2019-04-20T11:37:26.784Z,8.30
2019-04-20T11:41:33.669Z,9.17
2019-04-20T11:45:36.372Z,8.83
2019-04-20T11:49:39.701Z,8.93
2019-04-20T11:53:42.869Z,7.90
2019-04-20T11:57:47.158Z,7.67
2019-04-20T12:01:59.037Z,9.07
2019-04-20T12:06:02.797Z,8.20
2019-04-20T12:10:13.468Z,8.03
2019-04-20T12:14:12.617Z,9.03
2019-04-20T12:18:16.029Z,8.73
2019-04-20T12:22:19.161Z,7.40
2019-04-20T12:26:23.051Z,9.10
2019-04-20T12:30:27.905Z,7.60
2019-04-20T12:34:31.114Z,7.37
2019-04-20T12:38:34.899Z,7.57
2019-04-20T12:42:39.082Z,8.97
2019-04-20T12:46:43.620Z,8.40
2019-04-20T12:50:47.910Z,8.67
2019-04-20T12:54:52.422Z,7.70
2019-04-20T12:58:55.897Z,8.30
2019-04-20T13:02:59.224Z,8.37
2019-04-20T13:07:03.815Z,7.27
2019-04-20T13:11:13.002Z,6.00
2019-04-20T13:15:24.563Z,7.23
2019-04-20T13:19:27.853Z,7.23
2019-04-20T13:23:33.115Z,7.73
2019-04-20T13:27:36.664Z,6.53
2019-04-20T13:31:40.089Z,7.40
2019-04-20T13:35:43.887Z,8.03
2019-04-20T13:39:47.004Z,6.60
2019-04-20T13:43:50.330Z,7.37
2019-04-20T13:47:54.984Z,7.10
2019-04-20T13:51:59.041Z,6.57
2019-04-20T13:56:02.535Z,6.90
2019-04-20T14:00:22.143Z,9.10
2019-04-20T14:04:27.310Z,7.60
2019-04-20T14:08:33.404Z,7.70
2019-04-20T14:12:48.820Z,7.17
2019-04-20T14:16:43.102Z,7.10
2019-04-20T14:20:47.917Z,6.87
2019-04-20T14:24:51.167Z,7.70
2019-04-20T14:28:54.740Z,7.87
2019-04-20T14:32:58.788Z,8.73
2019-04-20T14:37:02.595Z,7.63
2019-04-20T14:41:06.402Z,8.10
2019-04-20T14:45:10.884Z,7.90
2019-04-20T14:49:14.706Z,6.90
2019-04-20T14:53:17.913Z,7.27
2019-04-20T14:57:21.399Z,6.73
2019-04-20T15:01:32.549Z,7.10
2019-04-20T15:05:36.903Z,6.67
2019-04-20T15:09:40.652Z,7.97
2019-04-20T15:13:44.766Z,7.70
2019-04-20T15:17:55.734Z,7.20
2019-04-20T15:22:03.662Z,9.93
2019-04-20T15:26:06.719Z,7.60
2019-04-20T15:30:10.456Z,6.80
2019-04-20T15:34:14.964Z,7.57
2019-04-20T15:38:18.366Z,7.43
2019-04-20T15:42:21.374Z,7.80
2019-04-20T15:46:25.552Z,8.23
2019-04-20T15:50:29.815Z,8.10
2019-04-20T15:54:33.877Z,8.30
2019-04-20T15:58:38.590Z,8.33
2019-04-20T16:02:43.653Z,7.13
2019-04-20T16:06:47.441Z,6.43
2019-04-20T16:10:50.967Z,6.30
2019-04-20T16:14:55.501Z,8.80
2019-04-20T16:18:59.116Z,8.60
2019-04-20T16:23:02.808Z,8.07
2019-04-20T16:27:17.954Z,6.83
2019-04-20T16:31:22.682Z,8.90
2019-04-20T16:35:26.649Z,6.77
2019-04-20T16:39:30.348Z,6.77
2019-04-20T16:43:40.375Z,7.90
2019-04-20T16:47:39.798Z,11.37
2019-04-20T16:51:43.100Z,7.20
2019-04-20T16:55:46.134Z,8.83
2019-04-20T16:59:54.077Z,9.57
2019-04-20T17:04:01.897Z,7.40
2019-04-20T17:08:00.709Z,8.17
2019-04-20T17:12:04.180Z,7.53
2019-04-20T17:16:08.170Z,7.47
2019-04-20T17:20:13.542Z,13.93
2019-04-20T17:24:17.550Z,9.20
2019-04-20T17:28:29.020Z,7.53
2019-04-20T17:32:35.085Z,6.87
2019-04-20T17:36:40.267Z,6.70
2019-04-20T17:40:59.890Z,7.00
2019-04-20T17:44:58.737Z,6.60
2019-04-20T17:49:09.329Z,6.90
2019-04-20T17:53:14.854Z,7.13
2019-04-20T17:57:09.087Z,9.40
2019-04-20T18:01:42.290Z,7.37
2019-04-20T18:05:59.677Z,8.37
2019-04-20T18:10:09.844Z,10.60
2019-04-20T18:13:58.915Z,10.73
2019-04-20T18:18:31.868Z,10.67
2019-04-20T18:22:21.551Z,10.97
2019-04-20T18:26:45.347Z,9.53
2019-04-20T18:30:41.815Z,9.70
2019-04-20T18:34:47.250Z,9.80
2019-04-20T18:38:54.273Z,10.33
2019-04-20T18:43:03.939Z,8.90
2019-04-20T18:47:19.810Z,8.70
2019-04-20T18:51:01.799Z,10.10
2019-04-20T18:55:16.267Z,8.80
2019-04-20T18:59:14.376Z,9.67
2019-04-20T19:03:26.952Z,9.20
2019-04-20T19:07:23.677Z,9.50
2019-04-20T19:11:27.131Z,10.80
2019-04-20T19:16:04.325Z,9.93
2019-04-20T19:19:59.647Z,12.17
2019-04-20T19:24:09.252Z,10.57
2019-04-20T19:28:08.775Z,11.03
2019-04-20T19:32:34.189Z,10.20
2019-04-20T19:36:26.325Z,10.10
2019-04-20T19:40:36.004Z,10.33
2019-04-20T19:44:46.298Z,9.87
2019-04-20T19:48:45.132Z,8.27
2019-04-20T19:53:05.747Z,11.07
2019-04-20T19:56:59.852Z,10.63
2019-04-20T20:00:52.186Z,12.60
2019-04-20T20:05:00.439Z,11.50
2019-04-20T20:09:05.199Z,11.77
2019-04-20T20:13:06.499Z,10.23
2019-04-20T20:17:32.742Z,10.93
2019-04-20T20:21:23.881Z,11.50
2019-04-20T20:25:23.478Z,12.93
2019-04-20T20:29:34.178Z,14.30
2019-04-20T20:33:43.975Z,11.50
2019-04-20T20:37:43.736Z,11.57
2019-04-20T20:41:53.336Z,11.67
2019-04-20T20:46:01.093Z,11.10
2019-04-20T20:50:15.508Z,11.10
2019-04-20T20:54:03.374Z,10.40
2019-04-20T20:58:09.807Z,10.93
2019-04-20T21:02:13.964Z,11.80
2019-04-20T21:06:09.686Z,11.80
2019-04-20T21:10:15.316Z,11.67
2019-04-20T21:14:21.923Z,12.20
2019-04-20T21:18:42.247Z,10.43
2019-04-20T21:22:51.690Z,14.17
2019-04-20T21:26:38.730Z,12.40
2019-04-20T21:30:43.724Z,14.20
2019-04-20T21:34:49.227Z,11.30
2019-04-20T21:38:50.036Z,11.73
2019-04-20T21:42:59.242Z,12.03
2019-04-20T21:46:59.724Z,11.80
2019-04-20T21:51:19.178Z,12.40
2019-04-20T21:55:09.863Z,12.80
2019-04-20T21:59:21.329Z,13.90
2019-04-20T22:03:22.627Z,13.37
2019-04-20T22:07:26.296Z,12.70
2019-04-20T22:11:29.635Z,12.40
2019-04-20T22:15:34.973Z,13.13
2019-04-20T22:19:45.913Z,12.10
2019-04-20T22:24:00.213Z,12.63
2019-04-20T22:27:48.431Z,10.53
2019-04-20T22:31:57.446Z,11.70
2019-04-20T22:36:01.096Z,13.00
2019-04-20T22:40:05.192Z,12.83
2019-04-20T22:44:14.572Z,10.40
2019-04-20T22:48:16.251Z,11.97
2019-04-20T22:52:34.737Z,11.83
2019-04-20T22:56:39.703Z,12.10
2019-04-20T23:00:37.319Z,12.00
2019-04-20T23:04:33.130Z,12.13
2019-04-20T23:08:36.207Z,11.80
2019-04-20T23:12:41.124Z,11.30
2019-04-20T23:16:49.140Z,12.33
2019-04-20T23:20:50.065Z,11.67
2019-04-20T23:24:55.281Z,13.00
2019-04-20T23:29:00.726Z,11.43
2019-04-20T23:33:04.290Z,11.70
2019-04-20T23:37:16.038Z,12.27
2019-04-20T23:41:13.551Z,12.63
2019-04-20T23:45:31.467Z,14.30
2019-04-20T23:49:38.127Z,11.50
2019-04-20T23:53:47.700Z,12.30
2019-04-20T23:57:41.876Z,12.17
